sensor_id;sensor_type;location;lat;lon;timestamp;P1;durP1;ratioP1;P2;durP2;ratioP2
7487;SDS011;3785;52.260;4.728;2023-10-31T00:02:33;4.63;;;2.70;;
7487;SDS011;3785;52.260;4.728;2023-10-31T00:05:54;5.03;;;2.67;;
7487;SDS011;3785;52.260;4.728;2023-10-31T00:09:16;3.50;;;2.38;;
7487;SDS011;3785;52.260;4.728;2023-10-31T00:12:36;4.65;;;1.65;;
7487;SDS011;3785;52.260;4.728;2023-10-31T00:15:58;2.40;;;1.80;;
7487;SDS011;3785;52.260;4.728;2023-10-31T00:19:19;2.60;;;1.13;;
7487;SDS011;3785;52.260;4.728;2023-10-31T00:22:40;4.20;;;1.05;;
7487;SDS011;3785;52.260;4.728;2023-10-31T00:26:00;1.77;;;0.93;;
7487;SDS011;3785;52.260;4.728;2023-10-31T00:29:21;2.85;;;1.00;;
7487;SDS011;3785;52.260;4.728;2023-10-31T00:32:41;1.20;;;0.60;;
7487;SDS011;3785;52.260;4.728;2023-10-31T00:36:02;2.60;;;0.80;;
7487;SDS011;3785;52.260;4.728;2023-10-31T00:39:23;1.48;;;0.73;;
7487;SDS011;3785;52.260;4.728;2023-10-31T00:42:43;2.78;;;0.60;;
7487;SDS011;3785;52.260;4.728;2023-10-31T00:46:04;1.63;;;0.47;;
7487;SDS011;3785;52.260;4.728;2023-10-31T00:49:25;2.47;;;0.50;;
7487;SDS011;3785;52.260;4.728;2023-10-31T00:52:45;1.10;;;0.43;;
7487;SDS011;3785;52.260;4.728;2023-10-31T00:56:07;0.77;;;0.30;;
7487;SDS011;3785;52.260;4.728;2023-10-31T00:59:27;0.20;;;0.20;;
7487;SDS011;3785;52.260;4.728;2023-10-31T01:02:48;0.10;;;0.10;;
7487;SDS011;3785;52.260;4.728;2023-10-31T01:06:08;0.75;;;0.40;;
7487;SDS011;3785;52.260;4.728;2023-10-31T01:09:29;0.60;;;0.40;;
7487;SDS011;3785;52.260;4.728;2023-10-31T01:12:49;1.65;;;0.50;;
7487;SDS011;3785;52.260;4.728;2023-10-31T01:16:10;1.33;;;0.65;;
7487;SDS011;3785;52.260;4.728;2023-10-31T01:19:31;1.45;;;0.70;;
7487;SDS011;3785;52.260;4.728;2023-10-31T01:22:52;1.67;;;0.90;;
7487;SDS011;3785;52.260;4.728;2023-10-31T01:26:13;2.10;;;1.23;;
7487;SDS011;3785;52.260;4.728;2023-10-31T01:29:34;2.55;;;1.90;;
7487;SDS011;3785;52.260;4.728;2023-10-31T01:32:54;2.72;;;1.92;;
7487;SDS011;3785;52.260;4.728;2023-10-31T01:36:15;3.67;;;2.25;;
7487;SDS011;3785;52.260;4.728;2023-10-31T01:39:36;4.22;;;1.92;;
7487;SDS011;3785;52.260;4.728;2023-10-31T01:42:57;3.13;;;1.80;;
7487;SDS011;3785;52.260;4.728;2023-10-31T01:46:17;6.85;;;2.05;;
7487;SDS011;3785;52.260;4.728;2023-10-31T01:49:38;4.53;;;2.13;;
7487;SDS011;3785;52.260;4.728;2023-10-31T01:52:58;4.28;;;1.85;;
7487;SDS011;3785;52.260;4.728;2023-10-31T01:56:19;2.25;;;1.50;;
7487;SDS011;3785;52.260;4.728;2023-10-31T01:59:40;1.25;;;0.65;;
7487;SDS011;3785;52.260;4.728;2023-10-31T02:03:01;0.77;;;0.52;;
7487;SDS011;3785;52.260;4.728;2023-10-31T02:06:22;0.43;;;0.32;;
7487;SDS011;3785;52.260;4.728;2023-10-31T02:09:43;1.63;;;0.55;;
7487;SDS011;3785;52.260;4.728;2023-10-31T02:13:10;0.57;;;0.50;;
7487;SDS011;3785;52.260;4.728;2023-10-31T02:16:31;0.60;;;0.30;;
7487;SDS011;3785;52.260;4.728;2023-10-31T02:19:52;1.52;;;0.40;;
7487;SDS011;3785;52.260;4.728;2023-10-31T02:23:15;1.50;;;0.30;;
7487;SDS011;3785;52.260;4.728;2023-10-31T02:26:36;0.82;;;0.30;;
7487;SDS011;3785;52.260;4.728;2023-10-31T02:29:57;1.85;;;0.20;;
7487;SDS011;3785;52.260;4.728;2023-10-31T02:33:17;0.40;;;0.28;;
7487;SDS011;3785;52.260;4.728;2023-10-31T02:36:38;0.60;;;0.28;;
7487;SDS011;3785;52.260;4.728;2023-10-31T02:39:58;0.20;;;0.10;;
7487;SDS011;3785;52.260;4.728;2023-10-31T02:43:20;3.50;;;0.40;;
7487;SDS011;3785;52.260;4.728;2023-10-31T02:46:41;0.20;;;0.20;;
7487;SDS011;3785;52.260;4.728;2023-10-31T02:50:01;0.38;;;0.20;;
7487;SDS011;3785;52.260;4.728;2023-10-31T02:53:22;0.10;;;0.10;;
7487;SDS011;3785;52.260;4.728;2023-10-31T02:56:42;0.22;;;0.20;;
7487;SDS011;3785;52.260;4.728;2023-10-31T03:00:03;0.20;;;0.20;;
7487;SDS011;3785;52.260;4.728;2023-10-31T03:03:24;0.52;;;0.20;;
7487;SDS011;3785;52.260;4.728;2023-10-31T03:06:45;2.25;;;0.40;;
7487;SDS011;3785;52.260;4.728;2023-10-31T03:10:05;2.45;;;0.38;;
7487;SDS011;3785;52.260;4.728;2023-10-31T03:13:26;2.55;;;0.43;;
7487;SDS011;3785;52.260;4.728;2023-10-31T03:16:47;0.50;;;0.20;;
7487;SDS011;3785;52.260;4.728;2023-10-31T03:20:08;0.20;;;0.20;;
7487;SDS011;3785;52.260;4.728;2023-10-31T03:23:29;1.75;;;0.20;;
7487;SDS011;3785;52.260;4.728;2023-10-31T03:26:49;0.20;;;0.20;;
7487;SDS011;3785;52.260;4.728;2023-10-31T03:30:10;0.50;;;0.20;;
7487;SDS011;3785;52.260;4.728;2023-10-31T03:33:31;0.20;;;0.20;;
7487;SDS011;3785;52.260;4.728;2023-10-31T03:36:52;0.75;;;0.25;;
7487;SDS011;3785;52.260;4.728;2023-10-31T03:40:13;1.13;;;0.25;;
7487;SDS011;3785;52.260;4.728;2023-10-31T03:43:33;0.55;;;0.20;;
7487;SDS011;3785;52.260;4.728;2023-10-31T03:46:54;0.47;;;0.20;;
7487;SDS011;3785;52.260;4.728;2023-10-31T03:50:15;1.75;;;0.32;;
7487;SDS011;3785;52.260;4.728;2023-10-31T03:53:35;0.80;;;0.20;;
7487;SDS011;3785;52.260;4.728;2023-10-31T03:56:56;2.33;;;0.43;;
7487;SDS011;3785;52.260;4.728;2023-10-31T04:00:16;0.73;;;0.40;;
7487;SDS011;3785;52.260;4.728;2023-10-31T04:03:37;0.43;;;0.28;;
7487;SDS011;3785;52.260;4.728;2023-10-31T04:06:57;1.85;;;0.47;;
7487;SDS011;3785;52.260;4.728;2023-10-31T04:10:19;1.02;;;0.30;;
7487;SDS011;3785;52.260;4.728;2023-10-31T04:13:39;0.52;;;0.32;;
7487;SDS011;3785;52.260;4.728;2023-10-31T04:17:00;1.58;;;0.28;;
7487;SDS011;3785;52.260;4.728;2023-10-31T04:20:21;0.82;;;0.40;;
7487;SDS011;3785;52.260;4.728;2023-10-31T04:23:41;0.20;;;0.10;;
7487;SDS011;3785;52.260;4.728;2023-10-31T04:27:02;0.50;;;0.30;;
7487;SDS011;3785;52.260;4.728;2023-10-31T04:30:22;0.90;;;0.22;;
7487;SDS011;3785;52.260;4.728;2023-10-31T04:33:43;1.90;;;0.35;;
7487;SDS011;3785;52.260;4.728;2023-10-31T04:37:04;1.55;;;0.30;;
7487;SDS011;3785;52.260;4.728;2023-10-31T04:40:24;1.42;;;0.30;;
7487;SDS011;3785;52.260;4.728;2023-10-31T04:43:45;0.40;;;0.30;;
7487;SDS011;3785;52.260;4.728;2023-10-31T04:47:06;4.60;;;0.57;;
7487;SDS011;3785;52.260;4.728;2023-10-31T04:50:26;0.77;;;0.30;;
7487;SDS011;3785;52.260;4.728;2023-10-31T04:53:47;0.88;;;0.40;;
7487;SDS011;3785;52.260;4.728;2023-10-31T04:57:08;0.50;;;0.35;;
7487;SDS011;3785;52.260;4.728;2023-10-31T05:00:28;1.98;;;0.32;;
7487;SDS011;3785;52.260;4.728;2023-10-31T05:03:49;2.65;;;0.40;;
7487;SDS011;3785;52.260;4.728;2023-10-31T05:07:09;0.63;;;0.43;;
7487;SDS011;3785;52.260;4.728;2023-10-31T05:10:30;0.47;;;0.38;;
7487;SDS011;3785;52.260;4.728;2023-10-31T05:13:51;0.90;;;0.35;;
7487;SDS011;3785;52.260;4.728;2023-10-31T05:17:12;1.35;;;0.35;;
7487;SDS011;3785;52.260;4.728;2023-10-31T05:20:32;3.55;;;0.40;;
7487;SDS011;3785;52.260;4.728;2023-10-31T05:23:53;4.97;;;0.45;;
7487;SDS011;3785;52.260;4.728;2023-10-31T05:27:13;2.85;;;0.38;;
7487;SDS011;3785;52.260;4.728;2023-10-31T05:30:34;2.75;;;0.47;;
7487;SDS011;3785;52.260;4.728;2023-10-31T05:33:55;1.85;;;0.43;;
7487;SDS011;3785;52.260;4.728;2023-10-31T05:37:15;0.40;;;0.40;;
7487;SDS011;3785;52.260;4.728;2023-10-31T05:40:36;1.35;;;0.47;;
7487;SDS011;3785;52.260;4.728;2023-10-31T05:43:57;1.55;;;0.57;;
7487;SDS011;3785;52.260;4.728;2023-10-31T05:47:17;1.67;;;0.52;;
7487;SDS011;3785;52.260;4.728;2023-10-31T05:50:38;2.53;;;0.60;;
7487;SDS011;3785;52.260;4.728;2023-10-31T05:53:59;1.70;;;0.55;;
7487;SDS011;3785;52.260;4.728;2023-10-31T05:57:20;1.55;;;0.55;;
7487;SDS011;3785;52.260;4.728;2023-10-31T06:00:40;2.60;;;0.52;;
7487;SDS011;3785;52.260;4.728;2023-10-31T06:04:01;0.70;;;0.40;;
7487;SDS011;3785;52.260;4.728;2023-10-31T06:07:21;0.98;;;0.40;;
7487;SDS011;3785;52.260;4.728;2023-10-31T06:10:42;0.65;;;0.40;;
7487;SDS011;3785;52.260;4.728;2023-10-31T06:14:03;0.75;;;0.50;;
7487;SDS011;3785;52.260;4.728;2023-10-31T06:17:25;3.72;;;0.82;;
7487;SDS011;3785;52.260;4.728;2023-10-31T06:20:46;2.05;;;1.40;;
7487;SDS011;3785;52.260;4.728;2023-10-31T06:24:07;3.65;;;2.60;;
7487;SDS011;3785;52.260;4.728;2023-10-31T06:27:28;3.47;;;2.70;;
7487;SDS011;3785;52.260;4.728;2023-10-31T06:30:48;5.13;;;3.63;;
7487;SDS011;3785;52.260;4.728;2023-10-31T06:34:09;4.88;;;3.22;;
7487;SDS011;3785;52.260;4.728;2023-10-31T06:37:29;4.68;;;3.95;;
7487;SDS011;3785;52.260;4.728;2023-10-31T06:40:50;5.93;;;3.42;;
7487;SDS011;3785;52.260;4.728;2023-10-31T06:44:11;7.90;;;3.72;;
7487;SDS011;3785;52.260;4.728;2023-10-31T06:47:31;5.07;;;3.47;;
7487;SDS011;3785;52.260;4.728;2023-10-31T06:50:52;8.93;;;3.15;;
7487;SDS011;3785;52.260;4.728;2023-10-31T06:54:12;6.80;;;4.13;;
7487;SDS011;3785;52.260;4.728;2023-10-31T06:57:33;4.90;;;3.30;;
7487;SDS011;3785;52.260;4.728;2023-10-31T07:00:54;4.15;;;3.08;;
7487;SDS011;3785;52.260;4.728;2023-10-31T07:04:15;4.93;;;3.03;;
7487;SDS011;3785;52.260;4.728;2023-10-31T07:07:36;5.90;;;3.08;;
7487;SDS011;3785;52.260;4.728;2023-10-31T07:10:57;7.75;;;3.30;;
7487;SDS011;3785;52.260;4.728;2023-10-31T07:14:17;4.05;;;2.40;;
7487;SDS011;3785;52.260;4.728;2023-10-31T07:17:38;4.03;;;2.17;;
7487;SDS011;3785;52.260;4.728;2023-10-31T07:20:59;6.15;;;2.20;;
7487;SDS011;3785;52.260;4.728;2023-10-31T07:24:19;2.47;;;1.70;;
7487;SDS011;3785;52.260;4.728;2023-10-31T07:27:40;3.75;;;1.75;;
7487;SDS011;3785;52.260;4.728;2023-10-31T07:31:01;3.97;;;1.70;;
7487;SDS011;3785;52.260;4.728;2023-10-31T07:34:21;2.90;;;1.90;;
7487;SDS011;3785;52.260;4.728;2023-10-31T07:37:42;2.83;;;1.73;;
7487;SDS011;3785;52.260;4.728;2023-10-31T07:41:02;2.38;;;1.30;;
7487;SDS011;3785;52.260;4.728;2023-10-31T07:44:23;5.80;;;1.23;;
7487;SDS011;3785;52.260;4.728;2023-10-31T07:47:44;2.78;;;1.40;;
7487;SDS011;3785;52.260;4.728;2023-10-31T07:51:04;1.98;;;1.27;;
7487;SDS011;3785;52.260;4.728;2023-10-31T07:54:25;4.68;;;1.38;;
7487;SDS011;3785;52.260;4.728;2023-10-31T07:57:45;3.85;;;1.20;;
7487;SDS011;3785;52.260;4.728;2023-10-31T08:01:06;2.08;;;1.20;;
7487;SDS011;3785;52.260;4.728;2023-10-31T08:04:30;1.98;;;1.13;;
7487;SDS011;3785;52.260;4.728;2023-10-31T08:07:51;2.35;;;1.25;;
7487;SDS011;3785;52.260;4.728;2023-10-31T08:11:12;2.67;;;1.30;;
7487;SDS011;3785;52.260;4.728;2023-10-31T08:14:32;5.10;;;2.15;;
7487;SDS011;3785;52.260;4.728;2023-10-31T08:17:53;4.82;;;1.80;;
7487;SDS011;3785;52.260;4.728;2023-10-31T08:21:13;7.97;;;2.28;;
7487;SDS011;3785;52.260;4.728;2023-10-31T08:24:34;3.88;;;1.65;;
7487;SDS011;3785;52.260;4.728;2023-10-31T08:27:56;1.60;;;1.30;;
7487;SDS011;3785;52.260;4.728;2023-10-31T08:31:17;2.22;;;1.50;;
7487;SDS011;3785;52.260;4.728;2023-10-31T08:34:37;3.53;;;1.60;;
7487;SDS011;3785;52.260;4.728;2023-10-31T08:37:58;4.00;;;1.23;;
7487;SDS011;3785;52.260;4.728;2023-10-31T08:41:19;1.80;;;1.20;;
7487;SDS011;3785;52.260;4.728;2023-10-31T08:44:41;2.95;;;1.27;;
7487;SDS011;3785;52.260;4.728;2023-10-31T08:48:02;1.95;;;1.15;;
7487;SDS011;3785;52.260;4.728;2023-10-31T08:51:22;4.40;;;1.45;;
7487;SDS011;3785;52.260;4.728;2023-10-31T08:54:43;3.38;;;1.63;;
7487;SDS011;3785;52.260;4.728;2023-10-31T08:58:04;3.40;;;1.77;;
7487;SDS011;3785;52.260;4.728;2023-10-31T09:01:24;3.60;;;1.42;;
7487;SDS011;3785;52.260;4.728;2023-10-31T09:04:45;2.55;;;1.48;;
7487;SDS011;3785;52.260;4.728;2023-10-31T09:08:05;2.97;;;1.33;;
7487;SDS011;3785;52.260;4.728;2023-10-31T09:11:26;2.47;;;0.90;;
7487;SDS011;3785;52.260;4.728;2023-10-31T09:14:47;3.35;;;1.05;;
7487;SDS011;3785;52.260;4.728;2023-10-31T09:18:07;2.67;;;1.20;;
7487;SDS011;3785;52.260;4.728;2023-10-31T09:21:28;2.95;;;1.17;;
7487;SDS011;3785;52.260;4.728;2023-10-31T09:24:48;1.60;;;0.90;;
7487;SDS011;3785;52.260;4.728;2023-10-31T09:28:09;3.30;;;1.35;;
7487;SDS011;3785;52.260;4.728;2023-10-31T09:31:30;6.57;;;2.42;;
7487;SDS011;3785;52.260;4.728;2023-10-31T09:34:50;4.13;;;2.22;;
7487;SDS011;3785;52.260;4.728;2023-10-31T09:38:11;5.15;;;2.80;;
7487;SDS011;3785;52.260;4.728;2023-10-31T09:41:32;4.70;;;2.40;;
7487;SDS011;3785;52.260;4.728;2023-10-31T09:44:52;5.50;;;2.10;;
7487;SDS011;3785;52.260;4.728;2023-10-31T09:48:13;4.30;;;2.20;;
7487;SDS011;3785;52.260;4.728;2023-10-31T09:51:33;7.80;;;2.35;;
7487;SDS011;3785;52.260;4.728;2023-10-31T09:54:54;2.47;;;1.73;;
7487;SDS011;3785;52.260;4.728;2023-10-31T09:58:15;2.92;;;2.00;;
7487;SDS011;3785;52.260;4.728;2023-10-31T10:01:35;3.28;;;1.95;;
7487;SDS011;3785;52.260;4.728;2023-10-31T10:04:56;3.22;;;1.50;;
7487;SDS011;3785;52.260;4.728;2023-10-31T10:08:16;4.85;;;1.83;;
7487;SDS011;3785;52.260;4.728;2023-10-31T10:11:37;4.13;;;2.55;;
7487;SDS011;3785;52.260;4.728;2023-10-31T10:14:57;4.95;;;2.53;;
7487;SDS011;3785;52.260;4.728;2023-10-31T10:18:25;3.85;;;2.25;;
7487;SDS011;3785;52.260;4.728;2023-10-31T10:21:51;2.92;;;2.00;;
7487;SDS011;3785;52.260;4.728;2023-10-31T10:25:16;4.53;;;2.00;;
7487;SDS011;3785;52.260;4.728;2023-10-31T10:28:38;2.97;;;1.80;;
7487;SDS011;3785;52.260;4.728;2023-10-31T10:31:59;3.25;;;1.38;;
7487;SDS011;3785;52.260;4.728;2023-10-31T10:35:19;4.78;;;1.10;;
7487;SDS011;3785;52.260;4.728;2023-10-31T10:38:40;2.47;;;1.33;;
7487;SDS011;3785;52.260;4.728;2023-10-31T10:42:05;4.82;;;1.15;;
7487;SDS011;3785;52.260;4.728;2023-10-31T10:45:30;2.63;;;1.00;;
7487;SDS011;3785;52.260;4.728;2023-10-31T10:48:52;2.58;;;1.08;;
7487;SDS011;3785;52.260;4.728;2023-10-31T10:52:27;2.28;;;0.55;;
7487;SDS011;3785;52.260;4.728;2023-10-31T10:56:09;1.08;;;0.50;;
7487;SDS011;3785;52.260;4.728;2023-10-31T11:03:04;1.63;;;0.52;;
7487;SDS011;3785;52.260;4.728;2023-10-31T11:06:25;1.95;;;0.40;;
7487;SDS011;3785;52.260;4.728;2023-10-31T11:09:46;1.55;;;0.60;;
7487;SDS011;3785;52.260;4.728;2023-10-31T11:13:07;1.58;;;0.30;;
7487;SDS011;3785;52.260;4.728;2023-10-31T11:16:39;3.05;;;0.50;;
7487;SDS011;3785;52.260;4.728;2023-10-31T11:20:03;0.73;;;0.50;;
7487;SDS011;3785;52.260;4.728;2023-10-31T11:23:24;3.72;;;0.68;;
7487;SDS011;3785;52.260;4.728;2023-10-31T11:26:50;1.13;;;0.68;;
7487;SDS011;3785;52.260;4.728;2023-10-31T11:30:34;2.53;;;0.57;;
7487;SDS011;3785;52.260;4.728;2023-10-31T11:33:53;1.88;;;0.50;;
7487;SDS011;3785;52.260;4.728;2023-10-31T11:37:33;2.42;;;0.68;;
7487;SDS011;3785;52.260;4.728;2023-10-31T11:41:00;1.17;;;0.57;;
7487;SDS011;3785;52.260;4.728;2023-10-31T11:44:22;2.28;;;0.60;;
7487;SDS011;3785;52.260;4.728;2023-10-31T11:47:47;2.50;;;0.60;;
7487;SDS011;3785;52.260;4.728;2023-10-31T11:51:08;2.38;;;0.60;;
7487;SDS011;3785;52.260;4.728;2023-10-31T11:54:29;0.80;;;0.40;;
7487;SDS011;3785;52.260;4.728;2023-10-31T11:57:49;1.17;;;0.55;;
7487;SDS011;3785;52.260;4.728;2023-10-31T12:01:10;0.93;;;0.43;;
7487;SDS011;3785;52.260;4.728;2023-10-31T12:04:30;2.50;;;1.48;;
7487;SDS011;3785;52.260;4.728;2023-10-31T12:07:51;2.95;;;1.80;;
7487;SDS011;3785;52.260;4.728;2023-10-31T12:11:13;2.70;;;1.70;;
7487;SDS011;3785;52.260;4.728;2023-10-31T12:14:35;3.40;;;1.70;;
7487;SDS011;3785;52.260;4.728;2023-10-31T12:17:59;4.97;;;1.70;;
7487;SDS011;3785;52.260;4.728;2023-10-31T12:21:20;4.32;;;1.75;;
7487;SDS011;3785;52.260;4.728;2023-10-31T12:24:40;4.05;;;1.75;;
7487;SDS011;3785;52.260;4.728;2023-10-31T12:28:01;5.65;;;1.60;;
7487;SDS011;3785;52.260;4.728;2023-10-31T12:31:21;3.53;;;1.50;;
7487;SDS011;3785;52.260;4.728;2023-10-31T12:34:43;1.33;;;0.55;;
7487;SDS011;3785;52.260;4.728;2023-10-31T12:38:04;3.45;;;1.00;;
7487;SDS011;3785;52.260;4.728;2023-10-31T12:41:24;3.28;;;1.00;;
7487;SDS011;3785;52.260;4.728;2023-10-31T12:44:45;2.63;;;1.20;;
7487;SDS011;3785;52.260;4.728;2023-10-31T12:48:06;6.20;;;1.17;;
7487;SDS011;3785;52.260;4.728;2023-10-31T13:04:34;4.03;;;0.90;;
7487;SDS011;3785;52.260;4.728;2023-10-31T13:07:55;3.60;;;1.08;;
7487;SDS011;3785;52.260;4.728;2023-10-31T13:11:17;3.08;;;1.30;;
7487;SDS011;3785;52.260;4.728;2023-10-31T13:14:42;4.57;;;1.40;;
7487;SDS011;3785;52.260;4.728;2023-10-31T13:18:03;4.38;;;1.48;;
7487;SDS011;3785;52.260;4.728;2023-10-31T13:21:24;4.43;;;1.15;;
7487;SDS011;3785;52.260;4.728;2023-10-31T13:24:45;4.93;;;0.90;;
7487;SDS011;3785;52.260;4.728;2023-10-31T13:28:05;3.10;;;1.20;;
7487;SDS011;3785;52.260;4.728;2023-10-31T13:31:29;3.17;;;1.05;;
7487;SDS011;3785;52.260;4.728;2023-10-31T13:34:50;4.05;;;0.90;;
7487;SDS011;3785;52.260;4.728;2023-10-31T13:38:10;1.42;;;0.80;;
7487;SDS011;3785;52.260;4.728;2023-10-31T13:41:31;1.67;;;0.80;;
7487;SDS011;3785;52.260;4.728;2023-10-31T13:44:51;1.90;;;1.02;;
7487;SDS011;3785;52.260;4.728;2023-10-31T13:48:12;11.05;;;6.13;;
7487;SDS011;3785;52.260;4.728;2023-10-31T13:51:34;10.77;;;6.95;;
7487;SDS011;3785;52.260;4.728;2023-10-31T13:54:55;14.32;;;7.80;;
7487;SDS011;3785;52.260;4.728;2023-10-31T13:58:16;15.52;;;8.45;;
7487;SDS011;3785;52.260;4.728;2023-10-31T14:01:36;17.50;;;9.15;;
7487;SDS011;3785;52.260;4.728;2023-10-31T14:04:57;18.70;;;10.52;;
7487;SDS011;3785;52.260;4.728;2023-10-31T14:08:18;18.83;;;11.50;;
7487;SDS011;3785;52.260;4.728;2023-10-31T14:11:39;18.67;;;10.20;;
7487;SDS011;3785;52.260;4.728;2023-10-31T14:15:00;18.98;;;10.73;;
7487;SDS011;3785;52.260;4.728;2023-10-31T14:18:21;18.10;;;10.48;;
7487;SDS011;3785;52.260;4.728;2023-10-31T14:21:41;19.10;;;11.13;;
7487;SDS011;3785;52.260;4.728;2023-10-31T14:25:02;17.35;;;11.00;;
7487;SDS011;3785;52.260;4.728;2023-10-31T14:28:24;14.05;;;9.55;;
7487;SDS011;3785;52.260;4.728;2023-10-31T14:31:45;14.85;;;9.68;;
7487;SDS011;3785;52.260;4.728;2023-10-31T14:35:06;12.82;;;8.02;;
7487;SDS011;3785;52.260;4.728;2023-10-31T14:38:27;12.65;;;8.10;;
7487;SDS011;3785;52.260;4.728;2023-10-31T14:41:47;13.13;;;8.35;;
7487;SDS011;3785;52.260;4.728;2023-10-31T14:45:08;14.68;;;8.05;;
7487;SDS011;3785;52.260;4.728;2023-10-31T14:48:29;12.40;;;7.65;;
7487;SDS011;3785;52.260;4.728;2023-10-31T14:51:49;12.48;;;8.68;;
7487;SDS011;3785;52.260;4.728;2023-10-31T14:55:10;12.10;;;8.18;;
7487;SDS011;3785;52.260;4.728;2023-10-31T14:58:31;15.18;;;8.43;;
7487;SDS011;3785;52.260;4.728;2023-10-31T15:01:52;14.35;;;8.43;;
7487;SDS011;3785;52.260;4.728;2023-10-31T15:05:12;14.10;;;9.07;;
7487;SDS011;3785;52.260;4.728;2023-10-31T15:08:33;15.35;;;9.20;;
7487;SDS011;3785;52.260;4.728;2023-10-31T15:11:54;15.82;;;9.63;;
7487;SDS011;3785;52.260;4.728;2023-10-31T15:15:15;14.30;;;8.75;;
7487;SDS011;3785;52.260;4.728;2023-10-31T15:18:36;14.38;;;9.75;;
7487;SDS011;3785;52.260;4.728;2023-10-31T15:21:56;14.75;;;8.60;;
7487;SDS011;3785;52.260;4.728;2023-10-31T15:46:25;16.00;;;10.20;;
7487;SDS011;3785;52.260;4.728;2023-10-31T15:49:46;15.88;;;10.27;;
7487;SDS011;3785;52.260;4.728;2023-10-31T15:53:06;18.38;;;10.48;;
7487;SDS011;3785;52.260;4.728;2023-10-31T16:09:52;13.13;;;7.70;;
7487;SDS011;3785;52.260;4.728;2023-10-31T16:13:13;15.55;;;8.40;;
7487;SDS011;3785;52.260;4.728;2023-10-31T16:16:34;13.65;;;8.07;;
7487;SDS011;3785;52.260;4.728;2023-10-31T16:19:54;13.52;;;7.55;;
7487;SDS011;3785;52.260;4.728;2023-10-31T16:23:16;12.85;;;8.05;;
7487;SDS011;3785;52.260;4.728;2023-10-31T16:26:39;11.68;;;7.28;;
7487;SDS011;3785;52.260;4.728;2023-10-31T16:29:59;12.13;;;8.05;;
7487;SDS011;3785;52.260;4.728;2023-10-31T16:33:20;12.32;;;7.70;;
7487;SDS011;3785;52.260;4.728;2023-10-31T16:36:40;11.57;;;7.13;;
7487;SDS011;3785;52.260;4.728;2023-10-31T16:40:01;11.77;;;6.72;;
7487;SDS011;3785;52.260;4.728;2023-10-31T16:43:22;9.13;;;6.15;;
7487;SDS011;3785;52.260;4.728;2023-10-31T16:46:45;10.68;;;6.50;;
7487;SDS011;3785;52.260;4.728;2023-10-31T16:50:06;9.70;;;6.30;;
7487;SDS011;3785;52.260;4.728;2023-10-31T16:53:27;10.45;;;6.55;;
7487;SDS011;3785;52.260;4.728;2023-10-31T16:56:48;12.68;;;6.20;;
7487;SDS011;3785;52.260;4.728;2023-10-31T17:00:09;13.38;;;6.28;;
7487;SDS011;3785;52.260;4.728;2023-10-31T17:03:29;9.40;;;5.95;;
7487;SDS011;3785;52.260;4.728;2023-10-31T17:06:50;11.00;;;6.32;;
7487;SDS011;3785;52.260;4.728;2023-10-31T17:10:11;10.52;;;6.13;;
7487;SDS011;3785;52.260;4.728;2023-10-31T17:13:31;10.88;;;6.20;;
7487;SDS011;3785;52.260;4.728;2023-10-31T17:16:54;11.43;;;6.25;;
7487;SDS011;3785;52.260;4.728;2023-10-31T17:20:15;10.48;;;6.38;;
7487;SDS011;3785;52.260;4.728;2023-10-31T17:23:35;9.88;;;6.03;;
7487;SDS011;3785;52.260;4.728;2023-10-31T17:26:56;11.60;;;6.38;;
7487;SDS011;3785;52.260;4.728;2023-10-31T17:30:16;11.27;;;6.45;;
7487;SDS011;3785;52.260;4.728;2023-10-31T17:33:37;11.82;;;6.45;;
7487;SDS011;3785;52.260;4.728;2023-10-31T17:36:59;11.88;;;6.78;;
7487;SDS011;3785;52.260;4.728;2023-10-31T17:40:22;11.80;;;7.25;;
7487;SDS011;3785;52.260;4.728;2023-10-31T17:43:43;13.50;;;7.00;;
7487;SDS011;3785;52.260;4.728;2023-10-31T17:47:04;13.50;;;6.93;;
7487;SDS011;3785;52.260;4.728;2023-10-31T17:50:25;11.05;;;6.63;;
7487;SDS011;3785;52.260;4.728;2023-10-31T17:53:46;21.83;;;8.88;;
7487;SDS011;3785;52.260;4.728;2023-10-31T17:57:08;12.95;;;7.13;;
7487;SDS011;3785;52.260;4.728;2023-10-31T18:00:28;12.52;;;6.85;;
7487;SDS011;3785;52.260;4.728;2023-10-31T18:03:49;15.20;;;7.72;;
7487;SDS011;3785;52.260;4.728;2023-10-31T18:07:11;12.38;;;7.20;;
7487;SDS011;3785;52.260;4.728;2023-10-31T18:10:31;14.55;;;7.78;;
7487;SDS011;3785;52.260;4.728;2023-10-31T18:13:52;15.10;;;8.20;;
7487;SDS011;3785;52.260;4.728;2023-10-31T18:17:12;16.55;;;7.85;;
7487;SDS011;3785;52.260;4.728;2023-10-31T18:20:33;14.43;;;6.88;;
7487;SDS011;3785;52.260;4.728;2023-10-31T18:23:57;13.27;;;7.65;;
7487;SDS011;3785;52.260;4.728;2023-10-31T18:27:17;11.50;;;6.88;;
7487;SDS011;3785;52.260;4.728;2023-10-31T18:30:39;11.88;;;6.35;;
7487;SDS011;3785;52.260;4.728;2023-10-31T18:33:59;12.95;;;6.90;;
7487;SDS011;3785;52.260;4.728;2023-10-31T18:37:22;12.50;;;7.25;;
7487;SDS011;3785;52.260;4.728;2023-10-31T18:40:43;15.55;;;7.70;;
7487;SDS011;3785;52.260;4.728;2023-10-31T18:44:03;11.98;;;7.55;;
7487;SDS011;3785;52.260;4.728;2023-10-31T18:47:24;14.20;;;7.72;;
7487;SDS011;3785;52.260;4.728;2023-10-31T18:50:46;15.02;;;7.80;;
7487;SDS011;3785;52.260;4.728;2023-10-31T18:54:07;17.75;;;8.52;;
7487;SDS011;3785;52.260;4.728;2023-10-31T18:57:29;12.30;;;7.40;;
7487;SDS011;3785;52.260;4.728;2023-10-31T19:00:50;12.23;;;7.25;;
7487;SDS011;3785;52.260;4.728;2023-10-31T19:04:10;14.32;;;7.72;;
7487;SDS011;3785;52.260;4.728;2023-10-31T19:07:32;13.85;;;8.15;;
7487;SDS011;3785;52.260;4.728;2023-10-31T19:10:53;13.27;;;8.02;;
7487;SDS011;3785;52.260;4.728;2023-10-31T19:14:14;14.57;;;8.10;;
7487;SDS011;3785;52.260;4.728;2023-10-31T19:17:35;15.38;;;7.78;;
7487;SDS011;3785;52.260;4.728;2023-10-31T19:20:55;14.43;;;7.80;;
7487;SDS011;3785;52.260;4.728;2023-10-31T19:24:16;17.17;;;8.40;;
7487;SDS011;3785;52.260;4.728;2023-10-31T19:27:36;14.07;;;7.25;;
7487;SDS011;3785;52.260;4.728;2023-10-31T19:30:57;14.88;;;8.80;;
7487;SDS011;3785;52.260;4.728;2023-10-31T19:34:18;13.63;;;7.85;;
7487;SDS011;3785;52.260;4.728;2023-10-31T19:37:39;14.65;;;8.32;;
7487;SDS011;3785;52.260;4.728;2023-10-31T19:41:04;15.45;;;8.57;;
7487;SDS011;3785;52.260;4.728;2023-10-31T19:44:26;13.68;;;8.18;;
7487;SDS011;3785;52.260;4.728;2023-10-31T19:47:47;13.00;;;7.43;;
7487;SDS011;3785;52.260;4.728;2023-10-31T19:51:08;13.07;;;7.40;;
7487;SDS011;3785;52.260;4.728;2023-10-31T19:54:29;16.40;;;9.07;;
7487;SDS011;3785;52.260;4.728;2023-10-31T19:57:50;17.02;;;8.48;;
7487;SDS011;3785;52.260;4.728;2023-10-31T20:01:11;14.88;;;8.32;;
7487;SDS011;3785;52.260;4.728;2023-10-31T20:04:32;13.07;;;8.30;;
7487;SDS011;3785;52.260;4.728;2023-10-31T20:07:53;11.48;;;6.68;;
7487;SDS011;3785;52.260;4.728;2023-10-31T20:11:13;11.82;;;5.70;;
7487;SDS011;3785;52.260;4.728;2023-10-31T20:14:34;7.03;;;4.63;;
7487;SDS011;3785;52.260;4.728;2023-10-31T20:17:57;3.33;;;2.53;;
7487;SDS011;3785;52.260;4.728;2023-10-31T20:21:18;4.70;;;3.03;;
7487;SDS011;3785;52.260;4.728;2023-10-31T20:24:40;4.03;;;1.98;;
7487;SDS011;3785;52.260;4.728;2023-10-31T20:28:02;2.45;;;1.75;;
7487;SDS011;3785;52.260;4.728;2023-10-31T20:31:24;2.20;;;1.17;;
7487;SDS011;3785;52.260;4.728;2023-10-31T20:34:44;2.17;;;1.40;;
7487;SDS011;3785;52.260;4.728;2023-10-31T20:38:05;4.15;;;1.05;;
7487;SDS011;3785;52.260;4.728;2023-10-31T20:41:25;1.17;;;0.70;;
7487;SDS011;3785;52.260;4.728;2023-10-31T20:44:46;1.65;;;0.80;;
7487;SDS011;3785;52.260;4.728;2023-10-31T20:48:07;0.57;;;0.47;;
7487;SDS011;3785;52.260;4.728;2023-10-31T20:51:27;0.75;;;0.45;;
7487;SDS011;3785;52.260;4.728;2023-10-31T20:54:48;2.47;;;0.75;;
7487;SDS011;3785;52.260;4.728;2023-10-31T20:58:08;1.33;;;0.73;;
7487;SDS011;3785;52.260;4.728;2023-10-31T21:01:29;1.23;;;0.70;;
7487;SDS011;3785;52.260;4.728;2023-10-31T21:04:51;0.88;;;0.60;;
7487;SDS011;3785;52.260;4.728;2023-10-31T21:08:12;3.22;;;0.63;;
7487;SDS011;3785;52.260;4.728;2023-10-31T21:11:32;3.08;;;0.90;;
7487;SDS011;3785;52.260;4.728;2023-10-31T21:14:53;1.40;;;0.73;;
7487;SDS011;3785;52.260;4.728;2023-10-31T21:18:13;1.38;;;0.70;;
7487;SDS011;3785;52.260;4.728;2023-10-31T21:21:35;2.22;;;0.75;;
7487;SDS011;3785;52.260;4.728;2023-10-31T21:24:56;2.33;;;0.57;;
7487;SDS011;3785;52.260;4.728;2023-10-31T21:28:18;1.50;;;0.70;;
7487;SDS011;3785;52.260;4.728;2023-10-31T21:31:38;1.17;;;0.65;;
7487;SDS011;3785;52.260;4.728;2023-10-31T21:34:59;1.75;;;0.70;;